createdAt,value
2022-11-23T00:09:55.947Z,998.66
2022-11-23T00:23:55.947Z,998.79
2022-11-23T00:37:55.971Z,998.86
2022-11-23T00:51:55.983Z,998.78
2022-11-23T01:05:55.988Z,999.05
2022-11-23T01:19:55.975Z,999.05
2022-11-23T01:33:56.003Z,998.94
2022-11-23T01:47:56.046Z,999.08
2022-11-23T02:01:56.017Z,999.19
2022-11-23T02:15:56.021Z,999.47
2022-11-23T02:29:56.002Z,999.63
2022-11-23T02:43:56.026Z,999.89
2022-11-23T03:22:49.185Z,1000.14
2022-11-23T03:36:49.202Z,1000.29
2022-11-23T03:54:16.655Z,1000.3
2022-11-23T04:08:16.983Z,1000.4
2022-11-23T04:22:16.989Z,1000.37
2022-11-23T04:36:16.986Z,1000.46
2022-11-23T04:50:17.017Z,1000.53
2022-11-23T05:04:17.969Z,1000.63
2022-11-23T05:18:17.174Z,1000.6
2022-11-23T05:32:17.340Z,1000.75
2022-11-23T05:46:17.455Z,1000.82
2022-11-23T06:00:17.443Z,1000.81
2022-11-23T06:14:17.463Z,1000.92
2022-11-23T06:29:17.483Z,1001.01
2022-11-23T06:44:17.528Z,1001.13
2022-11-23T06:59:17.507Z,1001.47
2022-11-23T07:14:17.562Z,1001.78
2022-11-23T07:29:17.568Z,1001.94
2022-11-23T07:44:17.591Z,1002.02
2022-11-23T07:59:17.621Z,1002.17
2022-11-23T08:14:17.677Z,1002.4
2022-11-23T08:29:17.714Z,1002.51
2022-11-23T08:44:17.746Z,1002.6
2022-11-23T08:59:17.735Z,1002.77
2022-11-23T09:14:17.767Z,1002.85
2022-11-23T09:29:17.828Z,1003.04
2022-11-23T09:44:17.862Z,1003.04
2022-11-23T09:59:17.878Z,1003.07
2022-11-23T10:15:17.915Z,1003.16
2022-11-23T10:30:18.000Z,1003.15
2022-11-23T10:55:45.896Z,1003.15
2022-11-23T11:10:45.974Z,1003.07
2022-11-23T11:25:46.070Z,1003.05
2022-11-23T11:40:46.207Z,1003.1
2022-11-23T11:56:46.298Z,1003.06
2022-11-23T12:12:46.433Z,1003
2022-11-23T12:27:48.734Z,1002.94
2022-11-23T12:43:46.454Z,1003.04
2022-11-23T12:58:46.667Z,1003.14
2022-11-23T13:14:46.607Z,1003.15
2022-11-23T13:29:46.657Z,1003.02
2022-11-23T13:44:46.743Z,1003.11
2022-11-23T13:59:47.062Z,1003.11
2022-11-23T14:14:47.087Z,1003.14
2022-11-23T14:29:47.001Z,1003.31
2022-11-23T14:44:46.991Z,1003.51
2022-11-23T15:00:47.045Z,1003.65
2022-11-23T15:15:47.210Z,1003.75
2022-11-23T15:30:47.261Z,1003.97
2022-11-23T15:45:47.200Z,1004.18
2022-11-23T16:00:47.222Z,1004.37
2022-11-23T16:15:47.261Z,1004.29
2022-11-23T16:29:47.232Z,1004.38
2022-11-23T16:43:47.248Z,1004.61
2022-11-23T16:57:47.220Z,1004.75
2022-11-23T17:11:47.246Z,1004.75
2022-11-23T17:25:47.269Z,1004.75
2022-11-23T17:39:47.321Z,1004.94
2022-11-23T17:53:47.330Z,1004.98
2022-11-23T18:07:47.397Z,1005.13
2022-11-23T18:21:47.324Z,1005.27
2022-11-23T18:35:47.366Z,1005.26
2022-11-23T18:49:47.335Z,1005.59
2022-11-23T19:03:47.522Z,1005.8
2022-11-23T19:17:47.396Z,1005.89
2022-11-23T19:31:47.368Z,1006.19
2022-11-23T19:45:47.425Z,1006.3
2022-11-23T19:59:47.399Z,1006.46
2022-11-23T20:13:47.528Z,1006.5
2022-11-23T20:27:47.681Z,1006.81
2022-11-23T20:41:47.521Z,1007.05
2022-11-23T20:55:47.525Z,1007.18
2022-11-23T21:09:47.580Z,1007.32
2022-11-23T21:23:50.939Z,1007.16
2022-11-23T21:37:47.488Z,1007.36
2022-11-23T21:51:47.542Z,1007.29
2022-11-23T22:05:47.483Z,1007.3
2022-11-23T22:19:47.483Z,1007.42
2022-11-23T22:33:47.497Z,1007.26
2022-11-23T22:47:47.486Z,1007.38
2022-11-23T23:01:47.583Z,1007.54
2022-11-23T23:15:47.530Z,1007.77
2022-11-23T23:29:47.569Z,1007.79
2022-11-23T23:43:47.556Z,1007.91
2022-11-23T23:57:47.597Z,1008.14
